PLYK1: Cottonwood River, Plymouth, KS

                                SHEF ID:       PLYK1     COTTONWOOD R NR PLYMOUTH, KS
STATION TYPE:
Regulating: Stage = 28.00, Flow = 11886

PRECIP STAGE STAGE(2) RIV-FLOW BAT-LOAD
in ft ft cfs volt
Ccp-Rev Ccp-Rev Ccp-Rev Ccp-Rev Ccp-Rev
(America/Chicago)
11/22 00:00 0.00 24.65 ---- 9509 12.45
11/22 01:00 0.00 24.49 ---- 9402 12.44
11/22 02:00 0.00 24.34 ---- 9301 12.44
11/22 03:00 0.00 24.18 ---- 9194 12.44
11/22 04:00 0.00 24.01 ---- 9082 12.44
11/22 05:00 0.00 23.82 ---- 8957 12.44
11/22 06:00 0.00 23.62 ---- 8826 12.44
11/22 07:00 0.00 23.38 ---- 8670 12.44
11/22 08:00 0.00 23.10 ---- 8489 12.43
11/22 09:00 0.00 22.80 ---- 8298 12.52
11/22 10:00 0.00 22.46 ---- 8083 13.64
11/22 11:00 0.00 22.09 ---- 7852 13.68
11/22 12:00 0.00 21.73 ---- 7630 13.62
11/22 13:00 0.00 21.24 ---- 7333 13.26
11/22 14:00 0.00 20.78 ---- 7058 13.30
11/22 15:00 0.00 20.29 ---- 6771 13.23
11/22 16:00 0.00 19.77 ---- 6472 13.09
11/22 17:00 0.00 19.24 ---- 6173 12.88
11/22 18:00 0.00 18.69 ---- 5870 12.81
11/22 19:00 0.00 18.13 ---- 5568 12.77
11/22 20:00 0.00 17.57 ---- 5273 12.73
11/22 21:00 0.00 17.00 ---- 4980 12.70
11/22 22:00 0.00 16.44 ---- 4700 12.67
11/22 23:00 0.00 15.89 ---- 4431 12.64
Data processed at Sun 23Nov2025 05:06 GMT

NOTICE: If you are parsing this page

Please convert to using our Data API. Starting January 1st, 2026 we will be migrating to: https://water.usace.army.mil with modern pages rendered in JavaScript. You will no longer be able to scrape this page! CWMSDataAPI (CDA)

Timeseries IDs (TSIDs)

TSIDs used from left to right in the data table
PLYM.Precip-Inc.Total.1Hour.1Hour.Ccp-Rev
PLYM.Stage.Inst.1Hour.0.Ccp-Rev
PLYM.Stage-Alt.Inst.1Hour.0.Ccp-Rev
PLYM.Flow.Inst.1Hour.0.Ccp-Rev
PLYM.Volt-Battery Load.Inst.1Hour.0.Ccp-Rev

                            

All information presented herein is the property of the government of the United States of America and may be revised or deleted at any time without prior notice. Dissemination of this information without the expressed written consent of the Public Affairs Office, Tulsa District U.S. Army Corps of Engineers is strictly prohibited. These data are gathered electronically and, as presented, have NOT undergone any form of quality control. These data are NOT guaranteed to be valid or correct.